Nearby METAR Reports

 

KBVO - Bartlesville, Oklahoma, USA
Distance from station: WNW 10mi, 16km
Updated: Mon, 18-Jun-2018 10:09am CDT
Mostly cloudy
Mostly cloudy
 Wind from S
Wind: S 9 mph , 15 km/h
Temperature: 81°F , 27°C
Heat Index: 86°F , 30°C
Dew Point: 73°F , 23°C
Humidity: 79%
Barometer: 30.05 inHg , 1017.6 hPa
Clouds: Mostly cloudy
Visibility: 10 miles , 16 km
Cloud details: Mostly cloudy 2500 ft
2018/06/18 15:09 KBVO 181509Z AUTO 18008KT 10SM BKN025 27/23 A3005 RMK AO2 T02720228
KCFV - Coffeyville, Kansas, USA
Distance from station: NNE 31mi, 49km
Updated: Mon, 18-Jun-2018 9:52am CDT
Overcast
Overcast
 Wind from SSE
Wind: SSE 14 mph , 22 km/h
Temperature: 81°F , 27°C
Heat Index: 85°F , 29°C
Dew Point: 72°F , 22°C
Humidity: 74%
Barometer: 30.05 inHg , 1017.6 hPa
Clouds: Overcast
Visibility: 10 miles , 16 km
Cloud details: Overcast 2300 ft
2018/06/18 14:52 KCFV 181452Z AUTO 16012KT 10SM OVC023 27/22 A3005 RMK AO2 SLP168 T02720222 51011
 
KIDP - Independence, Kansas, USA
Distance from station: N 32mi, 52km
Updated: Mon, 18-Jun-2018 10:15am CDT
Overcast
Overcast
 Wind from S
Wind: S 14 mph , 22 km/h
Temperature: 81°F , 27°C
Heat Index: 86°F , 30°C
Dew Point: 73°F , 23°C
Humidity: 79%
Barometer: 30.05 inHg , 1017.6 hPa
Clouds: Overcast
Visibility: 10 miles , 16 km
Cloud details: Overcast 2400 ft
2018/06/18 15:15 KIDP 181515Z AUTO 17012KT 10SM OVC024 27/23 A3005 RMK AO2
KGCM - Claremore, Oklahoma, USA
Distance from station: SE 35mi, 56km
Updated: Mon, 18-Jun-2018 10:35am CDT
Partly cloudy
Partly cloudy
 Wind from S
Wind: S 14 mph , 22 km/h, Gust: 17 mph , 28 km/h
Temperature: 81°F , 27°C
Heat Index: 85°F , 29°C
Dew Point: 70°F , 21°C
Humidity: 70%
Barometer: 30.08 inHg , 1018.6 hPa
Clouds: Partly cloudy
Visibility: 10 miles , 16 km
Cloud details: Partly cloudy 2300 ft
Partly cloudy 4000 ft
2018/06/18 15:35 KGCM 181535Z AUTO 17012G15KT 10SM SCT023 SCT040 27/21 A3008 RMK AO2
 
KTUL - Tulsa, Oklahoma, USA
Distance from station: S 35mi, 56km
Updated: Mon, 18-Jun-2018 9:53am CDT
Overcast
Overcast
 Wind from S
Wind: S 15 mph , 24 km/h
Temperature: 82°F , 28°C
Heat Index: 87°F , 31°C
Dew Point: 73°F , 23°C
Humidity: 74%
Barometer: 30.04 inHg , 1017.3 hPa
Clouds: Overcast
Visibility: 10 miles , 16 km
Cloud details: Mostly cloudy 2500 ft
Overcast 4000 ft
2018/06/18 14:53 KTUL 181453Z 17013KT 10SM BKN025 OVC040 28/23 A3004 RMK AO2 SLP162 T02780228 50010
KRVS - Tulsa, Oklahoma, USA
Distance from station: S 46mi, 74km
Updated: Mon, 18-Jun-2018 10:26am CDT
Overcast
Overcast
 Wind from S
Wind: S 9 mph , 15 km/h
Temperature: 82°F , 28°C
Heat Index: 86°F , 30°C
Dew Point: 70°F , 21°C
Humidity: 66%
Barometer: 30.05 inHg , 1017.6 hPa
Clouds: Overcast
Visibility: 10 miles , 16 km
Cloud details: Partly cloudy 2200 ft
Overcast 4100 ft
2018/06/18 15:26 KRVS 181526Z 17008KT 10SM SCT022 OVC041 28/21 A3005 RMK AO2 T02830211
 
KPPF - Parsons, Kansas, USA
Distance from station: NNE 48mi, 76km
Updated: Mon, 18-Jun-2018 10:04am CDT
Mostly cloudy
Mostly cloudy
 Wind from S
Wind: S 10 mph , 17 km/h
Temperature: 82°F , 28°C
Heat Index: 87°F , 31°C
Dew Point: 73°F , 23°C
Humidity: 74%
Barometer: 30.06 inHg , 1017.9 hPa
Clouds: Mostly cloudy
Visibility: 10 miles , 16 km
Cloud details: Partly cloudy 2400 ft
Mostly cloudy 2900 ft
2018/06/18 15:04 KPPF 181504Z AUTO 18009KT 10SM SCT024 BKN029 28/23 A3006 RMK AO2 T02780233
KGMJ - Grove, Oklahoma, USA
Distance from station: E 63mi, 101km
Updated: Mon, 18-Jun-2018 10:35am CDT
Mostly cloudy
Mostly cloudy
 Wind from SSW
Wind: SSW 12 mph , 19 km/h
Temperature: 82°F , 28°C
Heat Index: 85°F , 29°C
Dew Point: 68°F , 20°C
Humidity: 62%
Barometer: 30.09 inHg , 1019 hPa
Clouds: Mostly cloudy
Visibility: 10 miles , 16 km
Cloud details: Partly cloudy 2800 ft
Mostly cloudy 8500 ft
Mostly cloudy 11000 ft
2018/06/18 15:35 KGMJ 181535Z AUTO 21010KT 10SM SCT028 BKN085 BKN110 28/20 A3009 RMK AO2
 
KPNC - Ponca City, Oklahoma, USA
Distance from station: W 69mi, 111km
Updated: Mon, 18-Jun-2018 10:12am CDT
Mostly cloudy
Mostly cloudy
 Wind from S
Wind: S 8 mph , 13 km/h, Gust: 20 mph , 31 km/h
Temperature: 84°F , 29°C
Heat Index: 88°F , 31°C
Dew Point: 70°F , 21°C
Humidity: 62%
Barometer: 30.01 inHg , 1016.3 hPa
Clouds: Mostly cloudy
Visibility: 10 miles , 16 km
Cloud details: Mostly cloudy 2500 ft
2018/06/18 15:12 KPNC 181512Z AUTO 19007G17KT 10SM BKN025 29/21 A3001 RMK AO2 T02890211
KCNU - Chanute, Kansas, USA
Distance from station: NNE 69mi, 112km
Updated: Mon, 18-Jun-2018 9:52am CDT
Clear
Clear
 Wind from S
Wind: S 12 mph , 19 km/h
Temperature: 81°F , 27°C
Heat Index: 86°F , 30°C
Dew Point: 73°F , 23°C
Humidity: 79%
Barometer: 30.05 inHg , 1017.6 hPa
Clouds: Clear
Visibility: 10 miles , 16 km
2018/06/18 14:52 KCNU 181452Z AUTO 19010KT 10SM CLR 27/23 A3005 RMK AO2 SLP164 T02720228 50008